Time;durP1;ratioP1;P1;durP2;ratioP2;P2;SDS_P1;SDS_P2;PMS_P1;PMS_P2;Temp;Humidity;BMP_temperature;BMP_pressure;BME280_temperature;BME280_humidity;BME280_pressure;Samples;Min_cycle;Max_cycle;Signal;HPM_P1;HPM_P2
2023/11/16 00:00:49;;;;;;;11.43;2.70;;;9.10;99.90;;;;;;4956897;28;20038;-77
2023/11/16 00:03:37;;;;;;;10.27;3.03;;;9.00;99.90;;;;;;4944800;28;20055;-77
2023/11/16 00:06:24;;;;;;;15.88;2.67;;;9.00;99.90;;;;;;4956373;28;20552;-77
2023/11/16 00:09:12;;;;;;;14.77;3.60;;;9.10;99.90;;;;;;4987085;28;20050;-77
2023/11/16 00:12:02;;;;;;;13.40;2.85;;;9.00;99.90;;;;;;4952323;28;20047;-77
2023/11/16 00:14:50;;;;;;;9.95;2.50;;;9.00;99.90;;;;;;4965027;28;20045;-77
2023/11/16 00:17:38;;;;;;;11.73;2.78;;;9.00;99.90;;;;;;4957827;28;20058;-77
2023/11/16 00:20:25;;;;;;;9.65;2.33;;;9.00;99.90;;;;;;4972789;28;20096;-76
2023/11/16 00:23:15;;;;;;;12.45;2.47;;;9.00;99.90;;;;;;4957244;28;20379;-77
2023/11/16 00:26:04;;;;;;;10.55;2.63;;;9.00;99.90;;;;;;4951634;28;20101;-78
2023/11/16 00:28:54;;;;;;;7.22;3.00;;;9.00;99.90;;;;;;4951922;28;20630;-77
2023/11/16 00:31:42;;;;;;;9.85;2.42;;;9.00;99.90;;;;;;4926175;29;20511;-77
2023/11/16 00:34:28;;;;;;;13.65;2.67;;;9.00;99.90;;;;;;4935276;28;20122;-78
2023/11/16 00:37:14;;;;;;;11.57;3.35;;;9.00;99.90;;;;;;4955979;29;20043;-77
2023/11/16 00:40:04;;;;;;;10.60;3.05;;;9.00;99.90;;;;;;4931970;29;20420;-77
2023/11/16 00:42:51;;;;;;;14.05;3.42;;;9.00;99.90;;;;;;4922386;28;20114;-77
2023/11/16 00:45:38;;;;;;;12.88;3.85;;;8.90;99.90;;;;;;4964176;28;20073;-78
2023/11/16 00:48:25;;;;;;;11.88;2.50;;;8.90;99.90;;;;;;4938865;29;20046;-78
2023/11/16 00:51:14;;;;;;;15.73;3.00;;;8.90;99.90;;;;;;4954207;28;20085;-78
2023/11/16 00:54:01;;;;;;;11.15;2.47;;;8.90;99.90;;;;;;4933244;29;20035;-77
2023/11/16 00:56:48;;;;;;;15.02;2.50;;;8.90;99.90;;;;;;4947814;28;20070;-77
2023/11/16 00:59:35;;;;;;;17.52;3.20;;;8.90;99.90;;;;;;4947556;28;20039;-77
2023/11/16 01:02:22;;;;;;;11.25;2.80;;;8.90;99.90;;;;;;4949332;28;20919;-77
2023/11/16 01:05:10;;;;;;;9.55;2.42;;;8.80;99.90;;;;;;4986179;28;20121;-77
2023/11/16 01:07:56;;;;;;;12.15;2.35;;;8.90;99.90;;;;;;4955647;28;20094;-77
2023/11/16 01:10:43;;;;;;;11.55;3.03;;;8.80;99.90;;;;;;4962498;28;20042;-77
2023/11/16 01:13:38;;;;;;;13.50;2.75;;;8.80;99.90;;;;;;4944088;28;20047;-77
2023/11/16 01:16:30;;;;;;;9.25;3.15;;;8.80;99.90;;;;;;4944741;28;20041;-77
2023/11/16 01:19:21;;;;;;;9.35;2.78;;;8.70;99.90;;;;;;4941455;29;20039;-77
2023/11/16 01:22:15;;;;;;;15.38;3.63;;;8.70;99.90;;;;;;4959235;28;20399;-78
2023/11/16 01:25:04;;;;;;;7.60;2.78;;;8.80;99.90;;;;;;4962458;28;20031;-77
2023/11/16 01:27:57;;;;;;;15.32;3.75;;;8.80;99.90;;;;;;4979537;28;20050;-77
2023/11/16 01:30:44;;;;;;;9.65;3.10;;;8.70;99.90;;;;;;4945086;29;20102;-77
2023/11/16 01:33:30;;;;;;;7.43;2.42;;;8.70;99.90;;;;;;4952895;28;20049;-77
2023/11/16 01:36:16;;;;;;;13.35;3.55;;;8.70;99.90;;;;;;4951093;28;20043;-77
2023/11/16 01:39:03;;;;;;;13.70;3.03;;;8.70;99.90;;;;;;4937768;29;20069;-78
2023/11/16 01:41:50;;;;;;;14.38;3.42;;;8.70;99.90;;;;;;4959155;28;20071;-77
2023/11/16 01:44:36;;;;;;;8.73;2.38;;;8.70;99.90;;;;;;4972632;28;20038;-77
2023/11/16 01:47:24;;;;;;;11.93;3.60;;;8.70;99.90;;;;;;4969472;28;20039;-77
2023/11/16 01:50:11;;;;;;;12.68;3.17;;;8.70;99.90;;;;;;4934094;28;20640;-77
2023/11/16 01:53:04;;;;;;;8.30;2.63;;;8.70;99.90;;;;;;4949503;28;20085;-77
2023/11/16 01:55:50;;;;;;;15.73;3.10;;;8.70;99.90;;;;;;4944266;29;20437;-77
2023/11/16 01:58:37;;;;;;;12.88;3.20;;;8.60;99.90;;;;;;4944125;29;20402;-77
2023/11/16 02:01:24;;;;;;;13.05;3.58;;;8.60;99.90;;;;;;4949932;28;20049;-77
2023/11/16 02:04:10;;;;;;;14.00;3.27;;;8.60;99.90;;;;;;4946141;28;20034;-77
2023/11/16 02:06:58;;;;;;;9.80;2.78;;;8.60;99.90;;;;;;4957178;28;20082;-77
2023/11/16 02:09:47;;;;;;;9.45;3.08;;;8.60;99.90;;;;;;4971024;28;20039;-77
2023/11/16 02:12:32;;;;;;;;;;;8.60;99.90;;;;;;4932861;29;20431;-78
2023/11/16 02:15:18;;;;;;;8.77;2.97;;;8.60;99.90;;;;;;4962612;28;20254;-77
2023/11/16 02:18:05;;;;;;;12.32;3.00;;;8.60;99.90;;;;;;4947791;28;20070;-77
2023/11/16 02:20:53;;;;;;;10.73;2.42;;;8.60;99.90;;;;;;4958131;28;20042;-77
2023/11/16 02:23:43;;;;;;;;;;;8.60;99.90;;;;;;4944755;28;20476;-77
2023/11/16 02:26:29;;;;;;;12.50;3.28;;;8.60;99.90;;;;;;4943212;29;19921;-77
2023/11/16 02:29:15;;;;;;;10.35;2.88;;;8.60;99.90;;;;;;4957184;28;20039;-77
2023/11/16 02:32:01;;;;;;;13.75;3.33;;;8.60;99.90;;;;;;4936130;28;20069;-77
2023/11/16 02:34:47;;;;;;;11.02;2.40;;;8.60;99.90;;;;;;4936650;28;20980;-78
2023/11/16 02:37:35;;;;;;;12.90;3.22;;;8.60;99.90;;;;;;4948823;28;20388;-77
2023/11/16 02:40:21;;;;;;;10.23;2.60;;;8.60;99.90;;;;;;4935141;29;20039;-78
2023/11/16 02:43:07;;;;;;;11.98;3.50;;;8.60;99.90;;;;;;4940984;28;20085;-77
2023/11/16 02:45:53;;;;;;;13.77;3.22;;;8.60;99.90;;;;;;4938890;29;20367;-77
2023/11/16 02:48:39;;;;;;;14.73;4.00;;;8.60;99.90;;;;;;4969038;28;20039;-77
2023/11/16 02:51:25;;;;;;;14.98;3.90;;;8.60;99.90;;;;;;4957373;28;20434;-77
2023/11/16 02:54:11;;;;;;;10.50;2.80;;;8.60;99.90;;;;;;4944165;28;20587;-78
2023/11/16 02:56:57;;;;;;;12.60;3.42;;;8.70;99.90;;;;;;4979009;28;20121;-77
2023/11/16 02:59:45;;;;;;;8.50;2.95;;;8.60;99.90;;;;;;4961944;28;20045;-77
2023/11/16 03:02:32;;;;;;;9.53;3.10;;;8.70;99.90;;;;;;4948831;28;20463;-77
2023/11/16 03:05:21;;;;;;;9.15;3.22;;;8.70;99.90;;;;;;4949087;28;20093;-77
2023/11/16 03:08:07;;;;;;;9.95;2.80;;;8.70;99.90;;;;;;4941655;29;20035;-77
2023/11/16 03:10:53;;;;;;;12.38;2.88;;;8.70;99.90;;;;;;4938016;28;20074;-77
2023/11/16 03:13:41;;;;;;;12.50;3.33;;;8.70;99.90;;;;;;4950865;29;20031;-77
2023/11/16 03:16:27;;;;;;;13.35;3.90;;;8.80;99.90;;;;;;4942480;29;20039;-78
2023/11/16 03:19:13;;;;;;;14.05;3.53;;;8.80;99.90;;;;;;4945646;28;20038;-77
2023/11/16 03:22:02;;;;;;;9.18;2.70;;;8.80;99.90;;;;;;4939414;28;20625;-78
2023/11/16 03:24:48;;;;;;;12.73;3.53;;;8.80;99.90;;;;;;4959646;28;20034;-78
2023/11/16 03:27:35;;;;;;;10.90;3.30;;;8.80;99.90;;;;;;4954903;28;20082;-78
2023/11/16 03:30:22;;;;;;;15.15;3.38;;;8.90;99.90;;;;;;4936598;28;20040;-77
2023/11/16 03:33:08;;;;;;;10.43;3.07;;;8.90;99.90;;;;;;4953872;29;20043;-77
2023/11/16 03:35:54;;;;;;;7.57;3.00;;;8.90;99.90;;;;;;4945065;28;20053;-77
2023/11/16 03:38:40;;;;;;;12.57;3.70;;;8.90;99.90;;;;;;4934526;29;20118;-77
2023/11/16 03:41:26;;;;;;;10.52;3.35;;;8.90;99.90;;;;;;4964300;28;20050;-77
2023/11/16 03:44:13;;;;;;;23.20;4.45;;;8.90;99.90;;;;;;4946844;29;20035;-77
2023/11/16 03:46:59;;;;;;;8.60;2.90;;;8.90;99.90;;;;;;4939962;29;20444;-77
2023/11/16 03:49:45;;;;;;;8.60;3.30;;;8.90;99.90;;;;;;4954981;28;20359;-77
2023/11/16 03:52:31;;;;;;;14.75;3.17;;;8.90;99.90;;;;;;4937644;28;20050;-77
2023/11/16 03:55:17;;;;;;;8.85;2.47;;;8.90;99.90;;;;;;4938473;28;20340;-76
2023/11/16 03:58:03;;;;;;;15.13;3.08;;;9.00;99.90;;;;;;4953274;28;20408;-77
2023/11/16 04:00:49;;;;;;;15.63;3.05;;;9.00;99.90;;;;;;4969419;28;20045;-76
2023/11/16 04:03:35;;;;;;;9.50;2.80;;;9.00;99.90;;;;;;4955979;28;20073;-77
2023/11/16 04:06:22;;;;;;;9.02;3.15;;;9.00;99.90;;;;;;4932010;29;20159;-77
2023/11/16 04:09:09;;;;;;;8.70;2.60;;;9.00;99.90;;;;;;4947359;28;20121;-77
2023/11/16 04:11:57;;;;;;;7.72;2.65;;;9.00;99.90;;;;;;4978810;28;20043;-76
2023/11/16 04:14:43;;;;;;;9.38;2.50;;;9.00;99.90;;;;;;4939701;29;20039;-77
2023/11/16 04:17:30;;;;;;;10.23;2.10;;;9.00;99.90;;;;;;4917236;28;20036;-77
2023/11/16 04:20:19;;;;;;;7.55;3.45;;;9.00;99.90;;;;;;4934721;28;20134;-77
2023/11/16 04:23:05;;;;;;;13.25;2.85;;;9.00;99.90;;;;;;4943485;28;20059;-77
2023/11/16 04:25:54;;;;;;;9.82;2.45;;;9.00;99.90;;;;;;4965767;28;20035;-77
2023/11/16 04:28:42;;;;;;;6.30;2.58;;;8.90;99.90;;;;;;4951714;28;20139;-76
2023/11/16 04:31:28;;;;;;;9.93;2.42;;;8.90;99.90;;;;;;4946216;29;20043;-76
2023/11/16 04:34:14;;;;;;;8.38;2.38;;;9.00;99.90;;;;;;4932354;28;20109;-76
2023/11/16 04:37:04;;;;;;;8.70;3.25;;;8.90;99.90;;;;;;4975506;28;20767;-77
2023/11/16 04:39:50;;;;;;;9.05;2.53;;;8.90;99.90;;;;;;4942914;29;20059;-76
2023/11/16 04:42:41;;;;;;;10.50;2.60;;;8.90;99.90;;;;;;4949438;28;20925;-76
2023/11/16 04:45:29;;;;;;;7.45;2.17;;;8.90;99.90;;;;;;4941527;29;20038;-76
2023/11/16 04:48:17;;;;;;;8.73;2.83;;;8.90;99.90;;;;;;4938930;28;20697;-77
2023/11/16 04:51:03;;;;;;;9.07;3.03;;;8.90;99.90;;;;;;4951953;28;20059;-76
2023/11/16 04:53:50;;;;;;;11.50;2.47;;;8.90;99.90;;;;;;4919010;28;20041;-77
2023/11/16 04:56:37;;;;;;;10.00;2.78;;;8.90;99.90;;;;;;4932230;28;20369;-76
2023/11/16 04:59:24;;;;;;;8.57;2.97;;;8.90;99.90;;;;;;4944435;29;20271;-77
2023/11/16 05:02:10;;;;;;;12.95;2.38;;;8.90;99.90;;;;;;4930824;29;20491;-77
2023/11/16 05:04:56;;;;;;;8.20;2.50;;;8.90;99.90;;;;;;4962670;28;20446;-77
2023/11/16 05:07:43;;;;;;;10.55;3.03;;;8.90;99.90;;;;;;4936489;28;20046;-77
2023/11/16 05:10:29;;;;;;;12.95;2.75;;;8.90;99.90;;;;;;4976456;28;20380;-76
2023/11/16 05:13:18;;;;;;;7.28;2.42;;;8.90;99.90;;;;;;4950899;28;20050;-77
2023/11/16 05:16:04;;;;;;;12.15;2.55;;;8.90;99.90;;;;;;4949857;28;20034;-77
2023/11/16 05:18:50;;;;;;;11.70;2.97;;;8.90;99.90;;;;;;4950026;28;20411;-77
2023/11/16 05:21:36;;;;;;;10.50;3.10;;;8.90;99.90;;;;;;4951333;29;20746;-77
2023/11/16 05:24:24;;;;;;;8.00;2.28;;;8.90;99.90;;;;;;4945591;28;20053;-77
2023/11/16 05:27:10;;;;;;;9.82;2.53;;;8.80;99.90;;;;;;4964251;28;20042;-76
2023/11/16 05:29:56;;;;;;;7.68;2.55;;;8.80;99.90;;;;;;4943813;29;20047;-77
2023/11/16 05:32:42;;;;;;;10.65;2.55;;;8.80;99.90;;;;;;4943932;29;20066;-77
2023/11/16 05:35:29;;;;;;;8.65;2.63;;;8.80;99.90;;;;;;4945380;29;20106;-77
2023/11/16 05:38:17;;;;;;;8.27;2.47;;;8.80;99.90;;;;;;4932706;28;20039;-77
2023/11/16 05:41:04;;;;;;;7.03;2.17;;;8.80;99.90;;;;;;4941690;29;20051;-77
2023/11/16 05:43:52;;;;;;;8.57;2.93;;;8.70;99.90;;;;;;4934085;28;20043;-78
2023/11/16 05:46:38;;;;;;;5.97;2.15;;;8.70;99.90;;;;;;4955770;28;20042;-76
2023/11/16 05:49:26;;;;;;;10.05;3.50;;;8.70;99.90;;;;;;4931752;28;20079;-76
2023/11/16 05:52:13;;;;;;;10.27;3.00;;;8.70;99.90;;;;;;4949548;28;20435;-77
2023/11/16 05:54:59;;;;;;;10.07;2.63;;;8.70;99.90;;;;;;4936191;28;20367;-76
2023/11/16 05:57:46;;;;;;;6.03;2.15;;;8.70;99.90;;;;;;4964182;28;20348;-75
2023/11/16 06:00:33;;;;;;;10.30;3.00;;;8.70;99.90;;;;;;4961996;28;20189;-75
2023/11/16 06:03:25;;;;;;;7.75;2.25;;;8.70;99.90;;;;;;4950963;28;20085;-75
2023/11/16 06:06:11;;;;;;;9.15;3.13;;;8.70;99.90;;;;;;4959092;28;20241;-74
2023/11/16 06:08:57;;;;;;;11.75;2.70;;;8.60;99.90;;;;;;4939492;28;20035;-75
2023/11/16 06:11:44;;;;;;;10.35;2.58;;;8.50;99.90;;;;;;4930347;29;20051;-77
2023/11/16 06:14:32;;;;;;;11.93;3.17;;;8.40;99.90;;;;;;4952599;29;20045;-76
2023/11/16 06:17:18;;;;;;;11.63;3.40;;;8.40;99.90;;;;;;4948978;28;20117;-77
2023/11/16 06:20:05;;;;;;;13.65;4.05;;;8.30;99.90;;;;;;4958959;28;20062;-77
2023/11/16 06:22:52;;;;;;;11.82;3.85;;;8.30;99.90;;;;;;4964995;28;20058;-76
2023/11/16 06:25:38;;;;;;;11.95;3.88;;;8.20;99.90;;;;;;4916748;29;20041;-76
2023/11/16 06:28:26;;;;;;;13.18;4.45;;;8.20;99.90;;;;;;4959660;28;20466;-75
2023/11/16 06:31:12;;;;;;;8.67;3.43;;;8.10;99.90;;;;;;4934111;28;20047;-75
2023/11/16 06:33:59;;;;;;;11.85;4.03;;;8.10;99.90;;;;;;4960704;28;20266;-75
2023/11/16 06:36:46;;;;;;;8.68;3.40;;;8.10;99.90;;;;;;4950859;28;20458;-75
2023/11/16 06:39:32;;;;;;;8.80;4.00;;;8.10;99.90;;;;;;4917239;29;20058;-77
2023/11/16 06:42:20;;;;;;;10.93;3.63;;;8.00;99.90;;;;;;4943134;29;20503;-76
2023/11/16 06:45:07;;;;;;;11.98;3.42;;;8.00;99.90;;;;;;4943190;29;20131;-76
2023/11/16 06:47:55;;;;;;;10.20;3.53;;;8.10;99.90;;;;;;4944816;29;20046;-76
2023/11/16 06:50:42;;;;;;;9.45;2.90;;;8.10;99.90;;;;;;4944095;29;20039;-76
2023/11/16 06:53:28;;;;;;;10.33;3.10;;;8.10;99.90;;;;;;4957672;28;20067;-76
2023/11/16 06:56:15;;;;;;;7.30;2.72;;;8.10;99.90;;;;;;4959696;29;20086;-76
2023/11/16 06:59:03;;;;;;;9.43;2.50;;;8.10;99.90;;;;;;4966368;28;20459;-76
2023/11/16 07:01:49;;;;;;;7.88;2.65;;;8.00;99.90;;;;;;4940879;29;20109;-76
2023/11/16 07:04:36;;;;;;;6.10;2.67;;;8.10;99.90;;;;;;4960225;29;20047;-76
2023/11/16 07:07:23;;;;;;;7.30;2.97;;;8.10;99.90;;;;;;4962890;28;20442;-76
2023/11/16 07:10:11;;;;;;;8.88;2.90;;;8.10;99.90;;;;;;4946794;28;20049;-76
2023/11/16 07:12:57;;;;;;;9.70;4.43;;;8.10;99.90;;;;;;4933506;29;20376;-77
2023/11/16 07:15:48;;;;;;;7.60;3.00;;;8.10;99.90;;;;;;4952588;28;20042;-77
2023/11/16 07:18:35;;;;;;;8.95;3.13;;;8.10;99.90;;;;;;4948465;28;20044;-75
2023/11/16 07:21:22;;;;;;;8.52;3.58;;;8.00;99.90;;;;;;4971874;28;20042;-77
2023/11/16 07:24:11;;;;;;;10.57;3.35;;;8.00;99.90;;;;;;4952348;28;20085;-76
2023/11/16 07:27:02;;;;;;;9.73;2.90;;;7.90;99.90;;;;;;4962629;28;20046;-74
2023/11/16 07:29:48;;;;;;;6.30;2.55;;;7.90;99.90;;;;;;4940290;28;20039;-75
2023/11/16 07:32:35;;;;;;;8.18;2.75;;;7.90;99.90;;;;;;4975544;28;20045;-75
2023/11/16 07:35:23;;;;;;;9.63;2.90;;;7.80;99.90;;;;;;4962133;28;20043;-75
2023/11/16 07:38:10;;;;;;;5.68;2.53;;;8.00;99.90;;;;;;4973175;28;20531;-75
2023/11/16 07:40:57;;;;;;;8.77;2.90;;;8.10;99.90;;;;;;4959465;28;20112;-76
2023/11/16 07:43:43;;;;;;;6.55;2.90;;;7.90;99.90;;;;;;4964249;28;20114;-75
2023/11/16 07:46:30;;;;;;;6.90;3.17;;;7.90;99.90;;;;;;4964840;28;20035;-76
2023/11/16 07:49:16;;;;;;;10.35;3.05;;;7.80;99.90;;;;;;4969766;28;20039;-76
2023/11/16 07:52:03;;;;;;;8.50;2.92;;;7.80;99.90;;;;;;4941391;28;20487;-76
2023/11/16 07:54:50;;;;;;;6.70;2.92;;;7.80;99.90;;;;;;4965278;28;20502;-76
2023/11/16 07:57:37;;;;;;;6.77;3.43;;;7.80;99.90;;;;;;4969090;28;20045;-75
2023/11/16 08:00:30;;;;;;;11.27;3.47;;;7.80;99.90;;;;;;4969524;28;20035;-76
2023/11/16 08:06:22;;;;;;;10.43;3.60;;;7.90;99.90;;;;;;4955315;28;20039;-76
2023/11/16 08:09:09;;;;;;;7.95;3.22;;;7.90;99.90;;;;;;4945263;28;20089;-75
2023/11/16 08:11:56;;;;;;;7.13;2.28;;;7.90;99.90;;;;;;4951617;28;20053;-77
2023/11/16 08:14:42;;;;;;;6.22;2.28;;;7.90;99.90;;;;;;4964617;28;20039;-76
2023/11/16 08:17:28;;;;;;;6.75;1.65;;;7.90;99.90;;;;;;4952030;28;20126;-75
2023/11/16 08:20:14;;;;;;;3.83;1.40;;;7.80;99.90;;;;;;4964713;28;20495;-76
2023/11/16 08:23:00;;;;;;;4.22;1.40;;;7.90;99.90;;;;;;4951682;28;20063;-76
2023/11/16 08:25:48;;;;;;;3.75;1.10;;;7.80;99.90;;;;;;4937182;28;20043;-76
2023/11/16 08:28:34;;;;;;;2.63;0.90;;;7.90;99.90;;;;;;4951661;28;20129;-75
2023/11/16 08:31:20;;;;;;;4.78;1.20;;;7.90;99.90;;;;;;4963762;28;20467;-76
2023/11/16 08:34:08;;;;;;;3.75;1.35;;;7.90;99.90;;;;;;4946659;28;20034;-76
2023/11/16 08:36:54;;;;;;;3.10;0.70;;;7.90;99.90;;;;;;4949382;29;20082;-76
2023/11/16 08:39:40;;;;;;;3.28;1.10;;;7.90;99.90;;;;;;4949643;28;20043;-76
2023/11/16 08:42:26;;;;;;;3.58;0.93;;;7.90;99.90;;;;;;4945170;29;20043;-76
2023/11/16 08:45:20;;;;;;;3.05;1.00;;;7.90;99.90;;;;;;4940216;28;20542;-76
2023/11/16 08:48:08;;;;;;;3.30;1.40;;;7.90;99.90;;;;;;4965217;28;20076;-77
2023/11/16 08:50:55;;;;;;;4.25;1.00;;;7.90;99.90;;;;;;4964350;28;20378;-76
2023/11/16 08:53:42;;;;;;;3.05;1.10;;;7.90;99.90;;;;;;4950137;28;20498;-76
2023/11/16 08:56:28;;;;;;;1.90;0.73;;;7.80;99.90;;;;;;4932280;28;20031;-76
2023/11/16 08:59:14;;;;;;;1.77;0.75;;;7.80;99.90;;;;;;4951519;28;20050;-76
2023/11/16 09:02:03;;;;;;;2.88;0.90;;;7.80;99.90;;;;;;4965116;28;20046;-76
2023/11/16 09:04:50;;;;;;;2.97;0.80;;;7.80;99.90;;;;;;4953269;29;20464;-76
2023/11/16 09:07:37;;;;;;;3.58;0.73;;;7.90;99.90;;;;;;4944557;29;20766;-76
2023/11/16 09:10:24;;;;;;;2.85;0.85;;;7.90;99.90;;;;;;4944505;29;20078;-77
2023/11/16 09:13:11;;;;;;;4.53;0.75;;;7.90;99.90;;;;;;4954308;28;20126;-77
2023/11/16 09:15:57;;;;;;;8.38;1.17;;;8.00;99.90;;;;;;4935241;28;20458;-76
2023/11/16 09:18:47;;;;;;;18.70;1.98;;;7.90;99.90;;;;;;4958164;28;20047;-76
2023/11/16 09:21:34;;;;;;;4.20;0.88;;;8.00;99.90;;;;;;4929712;29;20086;-76
2023/11/16 09:24:21;;;;;;;4.47;0.90;;;7.90;99.90;;;;;;4936174;28;20057;-76
2023/11/16 09:27:07;;;;;;;4.13;1.33;;;7.80;99.90;;;;;;4944035;28;20043;-76
2023/11/16 09:29:53;;;;;;;10.48;1.08;;;7.80;99.90;;;;;;4975694;28;20429;-76
2023/11/16 09:32:41;;;;;;;3.40;1.13;;;7.80;99.90;;;;;;4960644;28;20046;-76
2023/11/16 09:35:32;;;;;;;4.45;1.45;;;7.90;99.90;;;;;;4955088;28;20034;-76
2023/11/16 09:38:19;;;;;;;4.47;1.50;;;7.90;99.90;;;;;;4950384;28;20034;-76
2023/11/16 09:41:21;;;;;;;3.37;1.13;;;7.90;99.90;;;;;;4949874;28;20442;-75
2023/11/16 09:44:07;;;;;;;3.10;1.00;;;7.90;99.90;;;;;;4955562;29;20031;-76
2023/11/16 09:47:02;;;;;;;3.40;1.20;;;8.00;99.90;;;;;;4910062;29;20043;-76
2023/11/16 09:49:48;;;;;;;6.18;1.10;;;8.10;99.90;;;;;;4948206;28;20030;-75
2023/11/16 09:52:38;;;;;;;5.53;1.10;;;8.20;99.90;;;;;;4935319;28;20034;-76
2023/11/16 09:55:26;;;;;;;2.13;0.88;;;8.30;99.90;;;;;;4949381;28;20105;-75
2023/11/16 09:58:17;;;;;;;5.15;1.40;;;8.40;99.90;;;;;;4931689;29;20031;-75
2023/11/16 10:01:10;;;;;;;5.63;1.00;;;8.50;99.90;;;;;;4938976;28;20387;-76
2023/11/16 10:03:59;;;;;;;3.80;1.10;;;8.70;99.90;;;;;;4956892;28;20042;-75
2023/11/16 10:06:49;;;;;;;2.80;1.00;;;8.90;99.90;;;;;;4949435;28;20376;-75
2023/11/16 10:09:42;;;;;;;4.22;1.10;;;9.10;99.90;;;;;;4960523;28;20422;-75
2023/11/16 10:12:31;;;;;;;4.38;1.35;;;9.30;99.90;;;;;;4949745;28;20043;-75
2023/11/16 10:15:26;;;;;;;3.17;0.98;;;9.50;99.90;;;;;;4962980;28;20468;-75
2023/11/16 10:18:12;;;;;;;3.65;1.20;;;9.70;99.90;;;;;;4951326;28;20367;-76
2023/11/16 10:20:58;;;;;;;2.60;1.00;;;10.00;99.90;;;;;;4969006;28;20054;-74
2023/11/16 10:23:45;;;;;;;8.57;0.98;;;10.00;99.90;;;;;;4974596;28;20165;-76
2023/11/16 10:26:34;;;;;;;5.30;0.93;;;10.20;99.90;;;;;;4975627;28;20047;-76
2023/11/16 10:29:42;;;;;;;5.25;1.00;;;10.30;99.90;;;;;;4958162;28;20035;-76
2023/11/16 10:32:29;;;;;;;4.57;0.88;;;10.90;99.90;;;;;;4943855;29;20138;-75
2023/11/16 10:35:17;;;;;;;4.32;0.90;;;11.20;99.90;;;;;;4930893;29;20050;-76
2023/11/16 10:38:04;;;;;;;4.50;1.13;;;11.40;99.90;;;;;;4943507;29;20032;-76
2023/11/16 10:40:53;;;;;;;5.47;0.90;;;11.90;99.90;;;;;;4960895;28;20087;-76
2023/11/16 10:43:40;;;;;;;3.17;0.75;;;12.10;99.90;;;;;;4937347;28;20039;-76
2023/11/16 10:46:27;;;;;;;4.13;1.08;;;12.40;99.90;;;;;;4945603;28;20048;-76
2023/11/16 10:49:13;;;;;;;4.15;0.82;;;12.40;99.90;;;;;;4967374;28;20057;-75
2023/11/16 10:52:02;;;;;;;6.00;0.90;;;12.60;99.90;;;;;;4943980;28;20049;-76
2023/11/16 10:54:49;;;;;;;3.00;1.02;;;13.20;99.90;;;;;;4941057;28;20031;-75
2023/11/16 10:57:35;;;;;;;3.38;0.77;;;13.30;99.90;;;;;;4972728;28;20043;-76
2023/11/16 11:00:22;;;;;;;3.65;0.75;;;13.00;99.90;;;;;;4939259;28;20054;-76
2023/11/16 11:03:10;;;;;;;5.97;1.02;;;13.00;99.90;;;;;;4961382;28;20090;-76
2023/11/16 11:05:58;;;;;;;5.75;1.02;;;13.20;99.90;;;;;;4949457;28;20621;-76
2023/11/16 11:08:44;;;;;;;2.58;0.80;;;13.10;99.90;;;;;;4929486;29;20094;-76
2023/11/16 11:11:35;;;;;;;6.50;0.80;;;13.60;99.90;;;;;;4943066;28;20486;-76
2023/11/16 11:14:25;;;;;;;7.00;0.90;;;13.70;99.90;;;;;;4930430;29;20478;-75
2023/11/16 11:17:18;;;;;;;2.55;0.70;;;13.40;99.90;;;;;;4957231;28;20035;-75
2023/11/16 11:20:10;;;;;;;8.07;2.17;;;;;;;;;;4949031;28;20042;-76
2023/11/16 11:23:03;;;;;;;2.65;0.68;;;;;;;;;;4962905;28;20051;-75
2023/11/16 11:25:51;;;;;;;4.53;0.80;;;;;;;;;;4961810;28;20404;-75
2023/11/16 11:28:38;;;;;;;3.47;0.60;;;;;;;;;;4961272;28;20039;-76
2023/11/16 11:31:32;;;;;;;1.88;0.68;;;;;;;;;;4948780;28;20146;-76
2023/11/16 11:34:25;;;;;;;2.33;0.70;;;;;;;;;;4942083;29;20027;-75
2023/11/16 11:37:12;;;;;;;7.75;1.00;;;;;;;;;;4943163;29;20464;-75
2023/11/16 11:39:58;;;;;;;7.13;1.50;;;;;;;;;;4956647;28;20035;-75
2023/11/16 11:42:50;;;;;;;6.38;1.02;;;;;;;;;;4932972;29;20375;-76
2023/11/16 11:45:37;;;;;;;2.20;0.60;;;;;;;;;;4946704;28;20027;-75
2023/11/16 11:48:23;;;;;;;5.88;1.00;;;;;;;;;;4933209;29;20039;-75
2023/11/16 11:51:14;;;;;;;4.00;0.70;;;;;;;;;;4955428;28;20069;-75
2023/11/16 11:54:00;;;;;;;2.35;0.60;;;;;;;;;;4963558;28;20034;-75
2023/11/16 11:56:47;;;;;;;3.33;0.90;;;;;;;;;;4964793;28;20130;-75
2023/11/16 11:59:35;;;;;;;4.20;0.80;;;;;;;;;;4957953;29;20499;-76
2023/11/16 12:02:21;;;;;;;1.65;0.82;;;;;;;;;;4942747;29;20050;-76
2023/11/16 12:05:16;;;;;;;3.88;1.10;;;;;;;;;;4944304;28;20039;-76
2023/11/16 12:08:05;;;;;;;1.52;0.75;;;;;;;;;;4950765;28;20102;-77
2023/11/16 12:10:51;;;;;;;2.95;1.05;;;;;;;;;;4949686;28;20487;-77
2023/11/16 12:13:42;;;;;;;2.72;0.70;;;;;;;;;;4963970;28;20062;-76
2023/11/16 12:16:28;;;;;;;3.15;1.30;;;;;;;;;;4963918;28;20174;-75
2023/11/16 12:19:21;;;;;;;3.83;0.75;;;;;;;;;;4963600;28;20039;-76
2023/11/16 12:22:08;;;;;;;4.35;0.80;;;;;;;;;;4957664;29;20066;-75
2023/11/16 12:24:56;;;;;;;3.15;0.82;;;;;;;;;;4948132;28;20035;-75
2023/11/16 12:27:43;;;;;;;2.53;0.65;;;;;;;;;;4965037;28;20487;-75
2023/11/16 12:30:29;;;;;;;3.38;0.73;;;;;;;;;;4935327;28;20043;-75
2023/11/16 12:33:16;;;;;;;6.45;0.80;;;;;;;;;;4970237;28;20499;-75
2023/11/16 12:36:02;;;;;;;1.23;0.60;;;;;;;;;;4969332;28;20132;-75
2023/11/16 12:38:49;;;;;;;1.90;0.50;;;;;;;;;;4996902;28;20069;-75
2023/11/16 12:41:40;;;;;;;3.95;0.70;;;;;;;;;;4969543;28;20463;-76
2023/11/16 12:44:27;;;;;;;6.70;0.85;;;;;;;;;;4966722;28;21026;-75
2023/11/16 12:47:13;;;;;;;3.30;0.90;;;;;;;;;;4963287;28;20038;-76
2023/11/16 12:50:00;;;;;;;3.83;0.70;;;;;;;;;;4965058;28;20043;-76
2023/11/16 12:52:47;;;;;;;4.72;0.98;;;;;;;;;;4963756;28;20038;-75
2023/11/16 12:55:33;;;;;;;6.13;1.67;;;;;;;;;;4950577;28;20039;-75
2023/11/16 12:58:22;;;;;;;7.03;1.05;;;;;;;;;;4964244;28;20407;-75
2023/11/16 13:01:12;;;;;;;4.72;1.15;;;;;;;;;;4949412;28;20646;-75
2023/11/16 13:03:59;;;;;;;5.88;1.10;;;;;;;;;;4968905;28;20369;-76
2023/11/16 13:06:46;;;;;;;2.95;1.10;;;;;;;;;;4995992;28;20042;-76
2023/11/16 13:09:32;;;;;;;6.90;1.00;;;;;;;;;;4969154;28;20132;-76
2023/11/16 13:12:19;;;;;;;6.93;1.05;;;;;;;;;;4963113;28;20038;-76
2023/11/16 13:15:06;;;;;;;4.22;0.77;;;;;;;;;;4975207;28;20085;-75
2023/11/16 13:17:53;;;;;;;6.57;1.40;;;;;;;;;;4951988;28;20737;-75
2023/11/16 13:20:41;;;;;;;12.32;2.03;;;;;;;;;;4962249;28;20043;-75
2023/11/16 13:23:28;;;;;;;3.30;1.00;;;;;;;;;;4962802;28;20057;-75
2023/11/16 13:26:15;;;;;;;4.93;0.93;;;;;;;;;;4972923;28;20476;-76
2023/11/16 13:29:02;;;;;;;3.38;0.82;;;;;;;;;;4933797;29;20039;-75
2023/11/16 13:31:49;;;;;;;4.03;0.93;;;;;;;;;;4945295;28;20042;-75
2023/11/16 13:34:36;;;;;;;13.60;1.90;;;;;;;;;;4958810;28;20030;-75
2023/11/16 13:37:22;;;;;;;3.47;1.30;;;;;;;;;;4948675;28;20464;-75
2023/11/16 13:40:15;;;;;;;4.45;0.70;;;;;;;;;;4939162;28;20359;-76
2023/11/16 13:43:02;;;;;;;9.20;1.27;;;;;;;;;;4962529;28;20341;-76
2023/11/16 13:45:49;;;;;;;5.60;1.02;;;;;;;;;;4969161;28;20034;-76
2023/11/16 13:48:35;;;;;;;5.32;1.08;;;;;;;;;;4967889;28;20125;-76
2023/11/16 13:51:22;;;;;;;5.53;1.02;;;;;;;;;;4975390;28;20046;-75
2023/11/16 13:54:09;;;;;;;4.35;0.95;;;;;;;;;;4948181;28;20872;-76
2023/11/16 13:56:56;;;;;;;4.65;0.90;;;;;;;;;;4951076;28;20039;-75
2023/11/16 13:59:45;;;;;;;5.35;0.90;;;;;;;;;;4962485;28;20053;-76
2023/11/16 14:02:32;;;;;;;4.97;1.13;;;;;;;;;;4943275;29;20047;-76
2023/11/16 14:05:18;;;;;;;5.05;1.35;;;;;;;;;;4944266;28;20102;-76
2023/11/16 14:08:05;;;;;;;6.93;2.58;;;;;;;;;;4960125;28;20049;-76
2023/11/16 14:10:51;;;;;;;13.23;2.47;;;;;;;;;;4962934;28;20039;-76
2023/11/16 14:13:41;;;;;;;18.55;2.45;;;;;;;;;;4955049;29;20039;-76
2023/11/16 14:16:27;;;;;;;10.68;1.77;;;;;;;;;;4948889;29;20046;-76
2023/11/16 14:19:14;;;;;;;16.13;2.30;;;;;;;;;;4950448;28;20073;-76
2023/11/16 14:22:00;;;;;;;3.30;1.00;;;;;;;;;;4940864;28;20832;-76
2023/11/16 14:24:47;;;;;;;6.65;1.25;;;;;;;;;;4976086;28;20360;-76
2023/11/16 14:27:36;;;;;;;3.55;1.20;;;;;;;;;;4961411;28;20042;-76
2023/11/16 14:30:23;;;;;;;5.00;1.48;;;;;;;;;;4975336;28;20042;-76
2023/11/16 14:33:09;;;;;;;3.50;1.85;;;;;;;;;;4969802;28;20030;-76
2023/11/16 14:35:56;;;;;;;6.18;1.42;;;;;;;;;;4992612;28;20121;-76
2023/11/16 14:38:42;;;;;;;4.40;1.50;;;;;;;;;;4949258;28;20050;-76
2023/11/16 14:41:28;;;;;;;7.00;1.75;;;;;;;;;;4961434;28;20031;-76
2023/11/16 14:44:18;;;;;;;4.60;1.27;;;;;;;;;;4974466;28;20513;-76
2023/11/16 14:47:04;;;;;;;4.38;1.20;;;;;;;;;;4951915;28;20344;-76
2023/11/16 14:49:51;;;;;;;3.88;1.33;;;;;;;;;;4948252;28;20118;-76
2023/11/16 14:52:37;;;;;;;5.60;1.20;;;8.40;99.90;;;;;;4969583;28;20038;-76
2023/11/16 14:55:23;;;;;;;4.28;1.10;;;8.40;99.90;;;;;;4937855;28;20823;-76
2023/11/16 14:58:10;;;;;;;4.65;1.30;;;8.40;99.90;;;;;;4949993;29;20767;-76
2023/11/16 15:00:56;;;;;;;2.85;1.10;;;8.50;99.90;;;;;;4917960;29;20122;-77
2023/11/16 15:03:44;;;;;;;5.38;1.70;;;8.40;99.90;;;;;;4943641;29;20105;-78
2023/11/16 15:06:30;;;;;;;;;;;8.50;99.90;;;;;;4932254;29;20035;-78
2023/11/16 15:09:16;;;;;;;7.13;1.50;;;8.40;99.90;;;;;;4956869;29;19910;-78